Time;durP1;ratioP1;P1;durP2;ratioP2;P2;SDS_P1;SDS_P2;PMS_P1;PMS_P2;Temp;Humidity;BMP_temperature;BMP_pressure;BME280_temperature;BME280_humidity;BME280_pressure;Samples;Min_cycle;Max_cycle;Signal;HPM_P1;HPM_P2
2023/01/12 00:02:16;;;;;;;5.23;3.67;;;5.60;99.90;5.10;99706;;;;581843;241;24043;-79
2023/01/12 00:04:43;;;;;;;6.17;3.87;;;5.60;99.90;5.10;99719;;;;596210;241;24050;-78
2023/01/12 00:07:11;;;;;;;5.33;4.10;;;5.60;99.90;5.10;99716;;;;581721;243;24045;-79
2023/01/12 00:09:39;;;;;;;4.87;4.27;;;5.60;99.90;5.20;99721;;;;581574;243;24046;-79
2023/01/12 00:12:08;;;;;;;4.43;3.43;;;5.70;99.90;5.20;99720;;;;602685;238;24028;-78
2023/01/12 00:14:39;;;;;;;5.20;4.07;;;5.70;99.90;5.20;99729;;;;590170;243;24062;-77
2023/01/12 00:17:05;;;;;;;4.70;3.80;;;5.70;99.90;5.20;99725;;;;577561;243;24076;-76
2023/01/12 00:19:35;;;;;;;5.27;3.23;;;5.70;99.90;5.20;99727;;;;596333;241;24046;-77
2023/01/12 00:22:09;;;;;;;4.73;3.23;;;5.70;99.90;5.20;99733;;;;589251;239;24104;-76
2023/01/12 00:24:35;;;;;;;7.57;6.03;;;5.70;99.90;5.20;99722;;;;589976;238;35083;-78
2023/01/12 00:27:03;;;;;;;5.37;4.37;;;5.70;99.90;5.20;99732;;;;591737;237;24034;-78
2023/01/12 00:29:31;;;;;;;4.40;3.67;;;5.80;99.90;5.30;99727;;;;592250;238;24028;-77
2023/01/12 00:31:59;;;;;;;4.50;3.63;;;5.80;99.90;5.30;99727;;;;586571;241;24033;-77
2023/01/12 00:34:30;;;;;;;3.33;3.00;;;5.80;99.90;5.40;99720;;;;599333;239;24027;-77
2023/01/12 00:36:58;;;;;;;5.70;3.93;;;5.90;99.90;5.40;99733;;;;589306;239;24086;-77
2023/01/12 00:39:23;;;;;;;4.17;3.77;;;5.90;99.90;5.50;99735;;;;601617;238;24029;-77
2023/01/12 00:47:24;;;;;;;3.43;3.13;;;6.10;99.90;5.60;99736;;;;596238;239;25082;-78
2023/01/12 00:49:52;;;;;;;4.20;3.70;;;6.10;99.90;5.60;99741;;;;602237;238;24075;-76
2023/01/12 00:52:23;;;;;;;7.43;3.60;;;6.10;99.90;5.70;99754;;;;597637;239;24026;-75
2023/01/12 00:54:48;;;;;;;5.67;3.90;;;6.20;99.90;5.70;99742;;;;588900;238;24056;-76
2023/01/12 00:57:19;;;;;;;8.07;3.50;;;6.20;99.90;5.70;99739;;;;603085;238;24035;-76
2023/01/12 00:59:44;;;;;;;5.43;4.00;;;6.20;99.90;5.70;99739;;;;592797;238;24065;-77
2023/01/12 01:02:12;;;;;;;3.90;3.53;;;6.20;99.90;5.80;99743;;;;602579;238;24007;-79
2023/01/12 01:04:40;;;;;;;5.77;3.50;;;6.30;99.90;5.80;99746;;;;603159;238;24035;-78
2023/01/12 01:07:08;;;;;;;4.30;3.20;;;6.30;99.90;5.80;99748;;;;603175;238;24006;-78
2023/01/12 01:09:36;;;;;;;8.47;4.30;;;6.30;99.90;5.80;99756;;;;602562;238;24104;-78
2023/01/12 01:12:03;;;;;;;7.17;4.27;;;6.30;99.90;5.70;99752;;;;602609;238;24043;-78
2023/01/12 01:14:31;;;;;;;5.73;4.37;;;6.30;99.90;5.70;99742;;;;601937;238;24051;-79
2023/01/12 01:17:00;;;;;;;8.10;6.20;;;6.20;99.90;5.60;99747;;;;597235;238;34938;-78
2023/01/12 01:19:28;;;;;;;9.55;7.07;;;6.10;99.90;5.50;99738;;;;596780;238;34964;-78
2023/01/12 01:21:57;;;;;;;9.47;7.10;;;6.00;99.90;5.50;99735;;;;597221;238;34961;-77
2023/01/12 01:24:25;;;;;;;7.30;5.17;;;6.00;99.90;5.40;99741;;;;602576;238;24010;-79
2023/01/12 01:26:53;;;;;;;8.37;4.17;;;5.90;99.90;5.40;99745;;;;602373;238;24113;-75
2023/01/12 01:29:21;;;;;;;4.67;4.17;;;5.90;99.90;5.40;99740;;;;601765;238;24023;-77
2023/01/12 01:31:49;;;;;;;5.83;4.73;;;5.90;99.90;5.30;99752;;;;602237;238;24089;-78
2023/01/12 01:34:17;;;;;;;5.60;4.40;;;5.90;99.90;5.30;99744;;;;602115;238;24045;-78
2023/01/12 01:36:45;;;;;;;9.13;4.17;;;5.80;99.90;5.20;99748;;;;601700;238;24033;-76
2023/01/12 01:39:13;;;;;;;6.33;3.83;;;5.80;99.90;5.20;99748;;;;602191;238;24056;-79
2023/01/12 01:41:41;;;;;;;10.20;3.60;;;5.70;99.90;5.20;99745;;;;602299;238;24024;-76
2023/01/12 01:44:31;;;;;;;5.87;3.23;;;5.70;99.90;5.20;99741;;;;602213;238;25087;-76
2023/01/12 01:47:04;;;;;;;7.30;3.70;;;5.70;99.90;5.10;99747;;;;602634;238;24017;-76
2023/01/12 01:49:47;;;;;;;5.13;4.37;;;5.70;99.90;5.10;99746;;;;601019;237;24042;-76
2023/01/12 01:52:21;;;;;;;6.93;3.63;;;5.60;99.90;5.00;99735;;;;591872;238;24045;-76
2023/01/12 01:54:55;;;;;;;6.60;4.27;;;5.60;99.90;5.00;99749;;;;601522;237;24003;-75
2023/01/12 01:57:23;;;;;;;9.98;6.20;;;5.60;99.90;5.00;99760;;;;586931;238;35010;-76
2023/01/12 01:59:51;;;;;;;7.57;4.83;;;5.50;99.90;5.00;99751;;;;602013;238;25092;-76
2023/01/12 02:02:18;;;;;;;6.47;4.23;;;5.50;99.90;4.90;99749;;;;602839;236;24067;-77
2023/01/12 02:04:46;;;;;;;5.77;4.27;;;5.50;99.90;4.90;99752;;;;604067;238;24010;-75
2023/01/12 02:07:14;;;;;;;5.97;4.00;;;5.40;99.90;4.90;99745;;;;597713;240;24034;-76
2023/01/12 02:09:43;;;;;;;6.23;3.50;;;5.40;99.90;4.80;99746;;;;598644;238;24022;-75
2023/01/12 02:18:00;;;;;;;5.00;3.00;;;5.30;99.90;4.70;99747;;;;597350;238;24035;-76
2023/01/12 02:20:49;;;;;;;5.47;3.03;;;5.30;99.90;4.70;99743;;;;600234;239;24033;-78
2023/01/12 02:23:40;;;;;;;7.67;4.20;;;5.20;99.90;4.60;99730;;;;593761;242;24074;-77
2023/01/12 02:26:27;;;;;;;6.53;4.20;;;5.20;99.90;4.60;99726;;;;602474;237;24065;-77
2023/01/12 02:29:28;;;;;;;4.43;3.23;;;5.10;99.90;4.60;99729;;;;602878;238;24018;-75
2023/01/12 02:32:17;;;;;;;5.30;3.50;;;5.10;99.90;4.60;99739;;;;602884;238;24020;-76
2023/01/12 02:34:57;;;;;;;7.73;4.30;;;5.10;99.90;4.50;99755;;;;602859;238;24045;-76
2023/01/12 02:38:01;;;;;;;4.87;4.03;;;5.10;99.90;4.50;99754;;;;602848;238;24014;-75
2023/01/12 02:40:31;;;;;;;4.13;3.67;;;5.00;99.90;4.40;99749;;;;601060;238;25083;-76
2023/01/12 02:43:14;;;;;;;6.27;4.30;;;5.00;99.90;4.40;99739;;;;601695;238;24026;-75
2023/01/12 02:45:50;;;;;;;9.40;4.27;;;4.90;99.90;4.30;99757;;;;602025;238;24029;-76
2023/01/12 02:48:24;;;;;;;5.77;3.80;;;4.80;99.90;4.30;99743;;;;593093;238;24030;-76
2023/01/12 02:50:57;;;;;;;7.30;4.73;;;4.80;99.90;4.20;99748;;;;592490;238;24034;-76
2023/01/12 02:53:37;;;;;;;5.70;4.17;;;4.80;99.90;4.20;99756;;;;585681;241;24036;-76
2023/01/12 02:56:08;;;;;;;5.57;3.60;;;4.70;99.90;4.10;99765;;;;586760;238;24145;-76
2023/01/12 02:58:34;;;;;;;7.60;4.27;;;4.70;99.90;4.10;99768;;;;580534;243;24069;-76
2023/01/12 03:01:01;;;;;;;5.47;4.27;;;4.60;99.90;4.10;99763;;;;590220;239;24022;-78
2023/01/12 03:03:28;;;;;;;6.50;4.30;;;4.60;99.90;4.10;99759;;;;590470;243;25103;-79
2023/01/12 03:05:59;;;;;;;6.63;3.83;;;4.60;99.90;4.00;99769;;;;596309;241;24051;-78
2023/01/12 03:08:27;;;;;;;9.00;4.20;;;4.60;99.90;4.00;99761;;;;595838;241;24068;-79
2023/01/12 03:11:13;;;;;;;6.23;3.17;;;4.50;99.90;4.00;99761;;;;581011;243;24062;-78
2023/01/12 03:13:44;;;;;;;9.83;3.83;;;4.50;99.90;4.00;99762;;;;582070;240;24134;-79
2023/01/12 03:16:12;;;;;;;4.87;3.10;;;4.50;99.90;3.90;99764;;;;593509;238;24139;-79
2023/01/12 03:18:51;;;;;;;8.17;4.00;;;4.50;99.90;4.00;99760;;;;596070;240;24047;-77
2023/01/12 03:21:34;;;;;;;10.73;4.30;;;4.50;99.90;4.00;99760;;;;598188;238;24024;-78
2023/01/12 03:24:11;;;;;;;7.30;3.73;;;4.60;99.90;4.10;99762;;;;595089;240;24029;-77
2023/01/12 03:26:35;;;;;;;13.73;7.53;;;4.60;99.90;4.20;99760;;;;594071;239;35033;-77
2023/01/12 03:29:18;;;;;;;11.47;6.17;;;4.70;99.90;4.30;99765;;;;597383;238;24032;-77
2023/01/12 03:31:46;;;;;;;8.90;5.20;;;4.80;99.90;4.40;99763;;;;594623;240;24067;-78
2023/01/12 03:34:18;;;;;;;14.82;7.85;;;4.90;99.90;4.40;99765;;;;594417;239;34944;-79
2023/01/12 03:36:42;;;;;;;11.57;5.23;;;5.00;99.90;4.50;99770;;;;601631;238;24040;-77
2023/01/12 03:39:21;;;;;;;8.90;5.23;;;5.10;99.90;4.60;99766;;;;594413;241;24043;-77
2023/01/12 03:41:52;;;;;;;12.93;4.53;;;5.10;99.90;4.60;99758;;;;599488;239;24019;-77
2023/01/12 03:44:20;;;;;;;12.13;4.90;;;5.10;99.90;4.60;99761;;;;598938;239;24105;-76
2023/01/12 03:46:48;;;;;;;9.90;4.67;;;5.20;99.90;4.60;99753;;;;598803;239;24144;-76
2023/01/12 03:49:27;;;;;;;5.73;4.53;;;5.20;99.90;4.60;99757;;;;595406;239;24186;-76
2023/01/12 03:51:55;;;;;;;11.97;5.17;;;5.20;99.90;4.60;99752;;;;592035;239;24061;-75
2023/01/12 03:54:26;;;;;;;7.40;4.33;;;5.20;99.90;4.50;99755;;;;590620;242;24062;-76
2023/01/12 03:56:55;;;;;;;17.33;5.30;;;5.10;99.90;4.50;99758;;;;581343;243;24137;-76
2023/01/12 03:59:20;;;;;;;13.00;4.97;;;5.00;99.90;4.40;99762;;;;581167;243;24078;-75
2023/01/12 04:01:51;;;;;;;5.40;3.77;;;5.00;99.90;4.30;99748;;;;586672;238;24062;-76
2023/01/12 04:04:16;;;;;;;11.07;4.40;;;4.90;99.90;4.30;99745;;;;580683;243;24075;-76
2023/01/12 04:06:44;;;;;;;8.63;4.40;;;4.80;99.90;4.20;99743;;;;586503;243;24098;-75
2023/01/12 04:09:12;;;;;;;8.37;4.53;;;4.80;99.90;4.20;99741;;;;601607;238;24055;-76
2023/01/12 04:14:27;;;;;;;4.80;3.90;;;4.70;99.90;4.10;99726;;;;602175;237;25110;-76
2023/01/12 04:16:55;;;;;;;4.87;3.63;;;4.70;99.90;4.10;99723;;;;596425;241;24014;-76
2023/01/12 04:19:23;;;;;;;6.13;4.13;;;4.60;99.90;4.10;99713;;;;602188;238;24090;-75
2023/01/12 04:24:37;;;;;;;8.83;4.20;;;4.70;99.90;4.20;99713;;;;602143;238;25070;-77
2023/01/12 04:27:09;;;;;;;8.37;4.27;;;4.70;99.90;4.20;99713;;;;597875;239;24102;-77
2023/01/12 04:29:34;;;;;;;7.57;4.00;;;4.80;99.90;4.30;99712;;;;593237;238;24047;-77
2023/01/12 04:32:02;;;;;;;10.60;4.10;;;4.80;99.90;4.30;99710;;;;602968;238;24071;-77
2023/01/12 04:34:30;;;;;;;6.83;4.30;;;4.80;99.90;4.30;99713;;;;603128;238;24044;-77
2023/01/12 04:36:58;;;;;;;7.67;4.70;;;4.80;99.90;4.30;99714;;;;596893;240;24027;-75
2023/01/12 04:39:26;;;;;;;4.30;3.83;;;4.80;99.90;4.30;99720;;;;597007;240;24084;-77
2023/01/12 04:41:54;;;;;;;6.43;4.27;;;4.80;99.90;4.30;99727;;;;592991;238;24050;-77
2023/01/12 04:44:21;;;;;;;9.50;4.47;;;4.80;99.90;4.40;99715;;;;602557;238;24022;-75
2023/01/12 04:46:49;;;;;;;5.57;4.63;;;4.90;99.90;4.40;99709;;;;602772;238;24104;-78
2023/01/12 04:49:17;;;;;;;7.27;4.43;;;4.90;99.90;4.30;99709;;;;602557;237;24047;-76
2023/01/12 04:51:45;;;;;;;8.37;4.03;;;4.90;99.90;4.20;99707;;;;602734;238;24012;-77
2023/01/12 04:54:13;;;;;;;6.57;4.40;;;4.80;99.90;4.20;99697;;;;602539;238;24066;-77
2023/01/12 04:56:41;;;;;;;4.60;3.17;;;4.80;99.90;4.10;99713;;;;602655;238;24070;-76
2023/01/12 04:59:10;;;;;;;4.10;2.93;;;4.70;99.90;4.20;99707;;;;602783;238;24032;-75
2023/01/12 05:01:37;;;;;;;15.27;4.23;;;4.70;99.90;4.20;99704;;;;601836;238;24019;-76
2023/01/12 05:04:05;;;;;;;8.00;4.37;;;4.80;99.90;4.30;99711;;;;602128;238;24018;-75
2023/01/12 05:06:33;;;;;;;5.60;3.90;;;4.80;99.90;4.40;99720;;;;602172;238;24066;-76
2023/01/12 05:11:47;;;;;;;5.87;3.97;;;5.00;99.90;4.60;99725;;;;602113;238;24038;-76
2023/01/12 05:14:15;;;;;;;7.00;3.10;;;5.10;99.90;4.60;99721;;;;601687;238;24034;-76
2023/01/12 05:16:43;;;;;;;5.33;3.73;;;5.20;99.90;4.70;99714;;;;602151;238;24029;-76
2023/01/12 05:19:14;;;;;;;7.07;4.20;;;5.20;99.90;4.60;99720;;;;602284;238;24044;-76
2023/01/12 05:21:38;;;;;;;6.90;3.70;;;5.20;99.90;4.60;99720;;;;601106;238;24057;-77
2023/01/12 05:24:11;;;;;;;6.27;3.73;;;5.20;99.90;4.60;99712;;;;602085;238;24085;-77
2023/01/12 05:26:35;;;;;;;7.00;4.13;;;5.10;99.90;4.60;99709;;;;601475;238;24058;-76
2023/01/12 05:29:03;;;;;;;7.87;3.83;;;5.20;99.90;4.60;99703;;;;602140;238;24076;-77
2023/01/12 05:31:31;;;;;;;5.13;3.93;;;5.10;99.90;4.50;99697;;;;602245;238;24020;-77
2023/01/12 05:33:59;;;;;;;4.43;3.03;;;5.10;99.90;4.50;99698;;;;602149;238;24081;-77
2023/01/12 05:36:26;;;;;;;10.93;4.77;;;5.10;99.90;4.50;99692;;;;596492;241;24040;-78
2023/01/12 05:38:58;;;;;;;5.73;4.83;;;5.00;99.90;4.40;99696;;;;603809;236;24026;-77
2023/01/12 05:41:23;;;;;;;7.23;4.07;;;5.00;99.90;4.40;99702;;;;591814;238;24122;-78
2023/01/12 05:43:51;;;;;;;9.13;3.67;;;5.00;99.90;4.40;99699;;;;597116;240;24036;-78
2023/01/12 05:46:20;;;;;;;7.63;3.80;;;5.00;99.90;4.50;99706;;;;593653;239;24048;-78
2023/01/12 05:48:48;;;;;;;7.57;4.20;;;5.00;99.90;4.60;99713;;;;590620;239;24054;-77
2023/01/12 05:51:16;;;;;;;11.47;4.93;;;5.20;99.90;4.70;99701;;;;596161;240;24056;-77
2023/01/12 05:53:44;;;;;;;9.07;4.33;;;5.20;99.90;4.80;99695;;;;582218;242;24112;-77
2023/01/12 05:56:21;;;;;;;9.90;4.53;;;5.30;99.90;4.90;99704;;;;586239;243;24110;-77
2023/01/12 05:58:51;;;;;;;5.67;4.03;;;5.40;99.90;4.90;99705;;;;578037;244;24123;-77
2023/01/12 06:01:19;;;;;;;6.00;4.87;;;5.40;99.90;4.90;99702;;;;602564;238;24029;-78
2023/01/12 06:03:53;;;;;;;13.03;4.57;;;5.40;99.90;4.90;99696;;;;602452;238;24039;-78
2023/01/12 06:06:18;;;;;;;12.90;4.20;;;5.40;99.90;4.90;99697;;;;590407;242;24102;-77
2023/01/12 06:08:49;;;;;;;8.90;4.53;;;5.40;99.90;4.80;99691;;;;602707;238;24087;-76
2023/01/12 06:14:00;;;;;;;6.17;4.43;;;5.20;99.90;4.70;99697;;;;595986;239;24044;-76
2023/01/12 06:16:31;;;;;;;13.20;4.83;;;5.30;99.90;4.70;99690;;;;589643;239;24100;-76
2023/01/12 06:18:56;;;;;;;9.57;5.07;;;5.20;99.90;4.70;99689;;;;601479;238;24070;-76
2023/01/12 06:21:24;;;;;;;7.77;4.10;;;5.20;99.90;4.80;99702;;;;587254;241;24029;-76
2023/01/12 06:23:52;;;;;;;8.40;4.80;;;5.30;99.90;4.80;99694;;;;587095;241;24024;-76
2023/01/12 06:26:20;;;;;;;11.03;4.40;;;5.50;99.90;5.00;99703;;;;592283;238;24026;-76
2023/01/12 06:28:48;;;;;;;4.47;3.87;;;5.40;99.90;5.00;99699;;;;602239;238;24059;-77
2023/01/12 06:31:19;;;;;;;7.17;5.40;;;5.50;99.90;5.10;99702;;;;602143;238;24042;-77
2023/01/12 06:33:44;;;;;;;6.70;4.53;;;5.60;99.90;5.20;99692;;;;601383;238;24076;-77
2023/01/12 06:36:15;;;;;;;10.80;6.10;;;5.70;99.90;5.30;99695;;;;602198;237;24100;-76
2023/01/12 06:38:43;;;;;;;10.63;4.17;;;5.80;99.90;5.30;99694;;;;596870;238;24035;-76
2023/01/12 06:42:27;;;;;;;9.13;4.17;;;5.80;99.90;5.40;99695;;;;601329;238;24042;-77
2023/01/12 06:43:36;;;;;;;11.17;5.33;;;5.90;99.90;5.40;99684;;;;602057;238;24039;-76
2023/01/12 06:46:04;;;;;;;7.67;5.00;;;5.90;99.90;5.40;99672;;;;602310;238;24091;-76
2023/01/12 06:48:31;;;;;;;8.27;5.20;;;5.90;99.90;5.40;99677;;;;591150;236;24027;-76
2023/01/12 06:51:03;;;;;;;7.77;5.07;;;5.90;99.90;5.40;99681;;;;603825;238;24059;-77
2023/01/12 06:53:28;;;;;;;9.27;4.80;;;5.90;99.90;5.30;99681;;;;602524;238;24050;-76
2023/01/12 06:55:57;;;;;;;6.83;5.20;;;5.90;99.90;5.30;99696;;;;602961;238;24018;-77
2023/01/12 06:58:25;;;;;;;8.13;4.83;;;5.80;99.90;5.30;99693;;;;602424;238;24076;-78
2023/01/12 07:00:53;;;;;;;14.03;6.60;;;5.90;99.90;5.40;99698;;;;602789;238;24034;-77
2023/01/12 07:03:21;;;;;;;8.50;5.10;;;5.90;99.90;5.40;99699;;;;602371;238;24025;-79
2023/01/12 07:05:49;;;;;;;9.20;5.17;;;6.00;99.90;5.50;99695;;;;602861;238;24036;-77
2023/01/12 07:08:18;;;;;;;10.87;4.87;;;6.00;99.90;5.50;99697;;;;601917;238;24055;-77
2023/01/12 07:10:45;;;;;;;12.33;5.00;;;6.10;99.90;5.60;99700;;;;602478;238;24076;-77
2023/01/12 07:13:13;;;;;;;6.33;4.40;;;6.10;99.90;5.60;99695;;;;603122;237;24021;-77
2023/01/12 07:15:41;;;;;;;7.00;5.03;;;6.10;99.90;5.70;99690;;;;602527;238;24026;-77
2023/01/12 07:18:09;;;;;;;9.20;4.60;;;6.20;99.90;5.70;99688;;;;603112;238;24021;-76
2023/01/12 07:20:36;;;;;;;12.20;4.83;;;6.20;99.90;5.80;99688;;;;602502;238;24047;-76
2023/01/12 07:23:04;;;;;;;9.97;5.13;;;6.30;99.90;5.80;99676;;;;602954;238;24022;-76
2023/01/12 07:25:32;;;;;;;7.00;4.43;;;6.30;99.90;5.80;99668;;;;602718;238;24011;-77
2023/01/12 07:28:00;;;;;;;8.77;4.53;;;6.40;99.90;5.80;99676;;;;602618;238;24021;-76
2023/01/12 07:30:28;;;;;;;13.77;4.77;;;6.40;99.90;5.90;99662;;;;602571;238;24024;-76
2023/01/12 07:32:56;;;;;;;7.60;4.57;;;6.40;99.90;5.90;99659;;;;602698;238;24029;-76
2023/01/12 07:35:24;;;;;;;11.03;4.90;;;6.50;99.90;5.90;99657;;;;601464;238;24030;-78
2023/01/12 07:37:55;;;;;;;6.37;4.13;;;6.50;99.90;6.00;99663;;;;602664;238;24013;-77
2023/01/12 07:40:20;;;;;;;5.43;4.33;;;6.50;99.90;6.00;99668;;;;602025;238;25158;-77
2023/01/12 07:42:48;;;;;;;9.13;5.87;;;6.50;99.90;6.00;99669;;;;597083;238;34927;-78
2023/01/12 07:45:15;;;;;;;10.68;6.22;;;6.50;99.90;6.00;99660;;;;597523;238;34920;-78
2023/01/12 07:47:43;;;;;;;4.90;4.20;;;6.60;99.90;6.10;99667;;;;602055;238;24018;-78
2023/01/12 07:50:11;;;;;;;8.20;4.43;;;6.60;99.90;6.10;99669;;;;602591;238;24030;-77
2023/01/12 07:52:40;;;;;;;7.53;4.23;;;6.70;99.90;6.10;99670;;;;596770;241;24010;-77
2023/01/12 07:55:10;;;;;;;12.77;4.07;;;6.70;99.90;6.10;99657;;;;599625;239;24032;-76
2023/01/12 07:57:36;;;;;;;6.57;3.70;;;6.70;99.90;6.10;99663;;;;589594;239;24032;-77
2023/01/12 08:00:04;;;;;;;4.37;3.63;;;6.70;99.90;6.20;99661;;;;602890;236;24050;-75
2023/01/12 08:02:34;;;;;;;7.67;3.97;;;6.70;99.90;6.20;99665;;;;594077;238;24060;-76
2023/01/12 08:04:59;;;;;;;11.27;5.37;;;6.70;99.90;6.30;99663;;;;597798;237;34921;-78
2023/01/12 08:07:27;;;;;;;8.20;5.28;;;6.80;99.90;6.30;99664;;;;591927;240;34953;-77
2023/01/12 08:09:55;;;;;;;9.30;5.22;;;6.80;99.90;6.40;99659;;;;597096;238;35074;-77
2023/01/12 08:12:23;;;;;;;9.83;4.60;;;6.90;99.90;6.40;99654;;;;592817;238;24021;-77
2023/01/12 08:14:51;;;;;;;7.00;3.90;;;6.90;99.90;6.40;99654;;;;590521;243;24100;-77
2023/01/12 08:17:19;;;;;;;6.63;3.97;;;7.00;99.90;6.40;99657;;;;596894;240;24028;-77
2023/01/12 08:19:47;;;;;;;11.03;3.77;;;7.00;99.90;6.50;99656;;;;593381;239;24135;-77
2023/01/12 08:22:15;;;;;;;5.07;3.20;;;7.00;99.90;6.60;99661;;;;602593;231;24099;-77
2023/01/12 08:24:43;;;;;;;7.07;3.40;;;7.10;99.90;6.70;99658;;;;592375;238;24027;-78
2023/01/12 08:27:14;;;;;;;5.07;3.33;;;7.30;99.90;6.80;99656;;;;593090;238;24027;-77
2023/01/12 08:29:45;;;;;;;6.60;3.47;;;7.20;99.90;6.80;99661;;;;592600;238;24048;-78
2023/01/12 08:32:16;;;;;;;3.77;3.03;;;7.40;99.90;6.90;99662;;;;593384;238;24025;-78
2023/01/12 08:34:42;;;;;;;7.07;3.10;;;7.50;99.90;7.00;99661;;;;577678;243;24118;-78
2023/01/12 08:37:10;;;;;;;7.40;3.03;;;7.50;99.90;7.00;99659;;;;587929;239;24038;-79
2023/01/12 08:39:38;;;;;;;5.20;3.37;;;7.60;99.90;7.10;99657;;;;592912;238;24035;-78
2023/01/12 08:42:06;;;;;;;6.13;3.47;;;7.60;99.90;7.30;99660;;;;592652;238;24055;-79
2023/01/12 08:44:37;;;;;;;4.80;2.87;;;7.70;99.90;7.40;99663;;;;596432;241;24031;-79
2023/01/12 08:47:02;;;;;;;4.43;3.30;;;7.90;99.90;7.50;99662;;;;592090;238;24066;-77
2023/01/12 08:49:30;;;;;;;8.17;2.93;;;8.00;99.90;7.60;99659;;;;592910;238;24030;-77
2023/01/12 08:51:59;;;;;;;5.00;2.77;;;8.20;99.90;7.80;99648;;;;585254;241;24114;-76
2023/01/12 08:54:26;;;;;;;6.07;3.67;;;8.20;99.90;7.80;99634;;;;602139;238;24030;-78
2023/01/12 08:56:55;;;;;;;7.47;3.00;;;8.30;99.90;7.80;99646;;;;596474;241;25072;-77
2023/01/12 08:59:24;;;;;;;3.20;2.53;;;8.30;99.90;7.70;99637;;;;601912;238;24029;-78
2023/01/12 09:01:51;;;;;;;6.87;3.10;;;8.30;99.90;7.80;99654;;;;596223;241;24048;-78
2023/01/12 09:04:19;;;;;;;5.40;3.30;;;8.20;99.90;7.80;99646;;;;602390;238;24050;-78
2023/01/12 09:06:47;;;;;;;7.97;2.90;;;8.30;99.90;7.70;99647;;;;596399;241;24083;-79
2023/01/12 09:09:16;;;;;;;3.97;2.00;;;8.30;99.90;7.80;99652;;;;602271;238;24076;-78
2023/01/12 09:11:47;;;;;;;5.80;3.20;;;8.30;99.90;7.80;99663;;;;601780;236;24038;-78
2023/01/12 09:14:11;;;;;;;8.07;2.47;;;8.30;99.90;7.80;99664;;;;590843;239;24042;-76
2023/01/12 09:16:39;;;;;;;7.47;3.20;;;8.30;99.90;7.80;99668;;;;592117;242;24131;-77
2023/01/12 09:19:07;;;;;;;6.57;2.70;;;8.30;99.90;7.80;99651;;;;593236;238;24042;-75
2023/01/12 09:21:38;;;;;;;5.50;2.73;;;8.30;99.90;7.70;99660;;;;602208;238;24123;-75
2023/01/12 09:24:06;;;;;;;4.00;2.70;;;8.20;99.90;7.70;99655;;;;593664;238;24059;-77
2023/01/12 09:26:39;;;;;;;3.23;2.50;;;8.20;99.90;7.70;99662;;;;592820;238;24018;-76
2023/01/12 09:29:10;;;;;;;6.53;3.13;;;8.20;99.90;7.70;99661;;;;601757;238;24041;-78
2023/01/12 09:31:38;;;;;;;3.50;2.40;;;8.20;99.90;7.80;99646;;;;577708;243;24066;-79
2023/01/12 09:34:04;;;;;;;8.70;2.37;;;8.30;99.90;7.80;99646;;;;589978;243;24063;-76
2023/01/12 09:36:32;;;;;;;8.57;3.07;;;8.30;99.90;7.80;99635;;;;593052;238;25050;-76
2023/01/12 09:39:06;;;;;;;4.97;2.70;;;8.30;99.90;7.80;99636;;;;580992;243;24101;-75
2023/01/12 09:47:34;;;;;;;6.07;2.97;;;8.50;99.90;8.10;99646;;;;592999;238;24030;-76
2023/01/12 09:50:08;;;;;;;5.60;2.53;;;8.50;99.90;8.10;99638;;;;601668;238;24034;-76
2023/01/12 09:52:48;;;;;;;3.97;2.30;;;8.60;99.90;8.10;99634;;;;602042;238;24081;-76
2023/01/12 09:55:19;;;;;;;6.90;2.70;;;8.60;99.90;8.20;99632;;;;598185;238;24045;-76
2023/01/12 09:57:55;;;;;;;5.90;2.57;;;8.70;99.90;8.40;99640;;;;593149;238;24022;-77
2023/01/12 10:00:26;;;;;;;5.77;3.13;;;8.80;99.90;8.40;99630;;;;593113;238;24036;-77
2023/01/12 10:02:57;;;;;;;4.50;3.03;;;8.80;99.90;8.40;99642;;;;601781;238;24067;-76
2023/01/12 10:05:48;;;;;;;6.17;2.20;;;8.80;99.90;8.40;99637;;;;591341;238;24052;-77
2023/01/12 10:08:30;;;;;;;3.50;2.97;;;8.80;99.90;8.40;99637;;;;601936;238;24041;-76
2023/01/12 10:11:19;;;;;;;7.77;2.10;;;8.80;99.90;8.50;99637;;;;603109;238;24025;-75
2023/01/12 10:14:18;;;;;;;6.43;2.80;;;8.90;99.90;8.60;99635;;;;601571;238;24101;-77
2023/01/12 10:17:15;;;;;;;3.67;2.10;;;9.00;99.90;8.50;99630;;;;602145;238;24029;-74
2023/01/12 10:19:46;;;;;;;4.87;2.83;;;9.00;99.90;8.50;99616;;;;601362;238;24022;-76
2023/01/12 10:22:38;;;;;;;4.33;2.63;;;9.00;99.90;8.50;99609;;;;602322;238;24070;-79
2023/01/12 10:25:26;;;;;;;4.90;2.50;;;9.00;99.90;8.40;99607;;;;604694;236;24035;-76
2023/01/12 10:27:55;;;;;;;6.73;2.40;;;8.90;99.90;8.40;99609;;;;593141;238;25072;-75
2023/01/12 10:30:32;;;;;;;4.50;2.63;;;8.80;99.90;8.30;99611;;;;602401;238;24033;-76
2023/01/12 10:33:21;;;;;;;5.33;3.17;;;8.80;99.90;8.30;99611;;;;592959;238;24032;-75
2023/01/12 10:35:51;;;;;;;5.63;3.00;;;8.80;99.90;8.40;99598;;;;602307;238;24044;-77
2023/01/12 10:38:33;;;;;;;4.60;2.97;;;8.80;99.90;8.50;99601;;;;602756;238;24040;-76
2023/01/12 10:41:16;;;;;;;5.80;3.10;;;8.90;99.90;8.50;99601;;;;602254;238;24064;-78
2023/01/12 10:43:44;;;;;;;3.90;2.30;;;8.90;99.90;8.50;99605;;;;593444;238;24059;-76
2023/01/12 10:46:13;;;;;;;9.33;3.80;;;8.90;99.90;8.40;99597;;;;587972;238;34928;-77
2023/01/12 10:48:47;;;;;;;6.40;2.83;;;8.90;99.90;8.40;99597;;;;595052;241;24020;-77
2023/01/12 10:51:21;;;;;;;7.13;3.60;;;8.90;99.90;8.40;99591;;;;596849;238;24131;-77
2023/01/12 10:54:09;;;;;;;6.77;2.60;;;8.90;99.90;8.40;99591;;;;592142;238;24057;-78
2023/01/12 10:56:44;;;;;;;6.83;3.13;;;8.90;99.90;8.40;99591;;;;592339;238;24055;-77
2023/01/12 10:59:12;;;;;;;8.47;2.43;;;8.90;99.90;8.40;99595;;;;601704;238;24131;-76
2023/01/12 11:01:45;;;;;;;5.03;2.57;;;8.90;99.90;8.40;99595;;;;601951;238;24051;-76
2023/01/12 11:04:13;;;;;;;4.00;2.63;;;8.80;99.90;8.30;99583;;;;593015;238;24053;-77
2023/01/12 11:06:42;;;;;;;7.43;2.83;;;8.70;99.90;8.20;99579;;;;602032;238;24082;-78
2023/01/12 11:09:21;;;;;;;8.87;2.93;;;8.70;99.90;8.30;99567;;;;601363;238;24067;-76
2023/01/12 11:11:52;;;;;;;5.10;2.57;;;8.70;99.90;8.30;99567;;;;592230;238;24046;-77
2023/01/12 11:14:23;;;;;;;7.07;2.90;;;8.80;99.90;8.30;99563;;;;602460;236;24028;-77
2023/01/12 11:16:52;;;;;;;5.57;3.03;;;8.70;99.90;8.30;99566;;;;601419;238;24053;-75
2023/01/12 11:19:23;;;;;;;6.03;3.27;;;8.80;99.90;8.30;99564;;;;601994;238;24046;-77
2023/01/12 11:21:54;;;;;;;6.07;3.00;;;8.80;99.90;8.40;99546;;;;601768;238;24087;-76
2023/01/12 11:24:37;;;;;;;7.70;2.40;;;8.90;99.90;8.50;99540;;;;601203;238;24096;-74
2023/01/12 11:27:29;;;;;;;5.63;3.17;;;8.90;99.90;8.50;99532;;;;590326;238;24108;-76
2023/01/12 11:30:04;;;;;;;5.07;3.00;;;8.90;99.90;8.40;99543;;;;592533;238;24040;-75
2023/01/12 11:32:41;;;;;;;4.40;2.90;;;8.90;99.90;8.40;99525;;;;587260;239;24047;-75
2023/01/12 11:35:34;;;;;;;3.10;2.53;;;8.80;99.90;8.30;99524;;;;590339;242;24049;-77
2023/01/12 11:38:12;;;;;;;5.13;2.93;;;8.70;99.90;8.30;99528;;;;593673;238;24047;-75
2023/01/12 11:40:40;;;;;;;6.27;3.10;;;8.70;99.90;8.30;99513;;;;581308;242;24067;-77
2023/01/12 12:07:47;;;;;;;6.27;2.97;;;8.60;99.90;8.20;99497;;;;617269;228;36046;-83
2023/01/12 12:10:21;;;;;;;7.13;3.37;;;8.70;99.90;8.20;99490;;;;605441;237;24084;-82
2023/01/12 12:13:05;;;;;;;7.17;3.97;;;8.70;99.90;8.20;99488;;;;606491;237;24153;-82
2023/01/12 12:15:42;;;;;;;4.73;3.20;;;8.70;99.90;8.20;99486;;;;606478;236;24130;-81
2023/01/12 12:18:30;;;;;;;6.57;2.50;;;8.70;99.90;8.20;99479;;;;605525;237;24072;-82
2023/01/12 12:21:34;;;;;;;9.17;3.30;;;8.70;99.90;8.20;99466;;;;606011;235;24128;-82
2023/01/12 12:24:33;;;;;;;9.00;3.47;;;8.70;99.90;8.20;99450;;;;605203;237;24040;-82
2023/01/12 12:27:30;;;;;;;5.70;4.00;;;8.70;99.90;8.20;99450;;;;598175;233;24038;-82
2023/01/12 12:30:37;;;;;;;5.43;3.13;;;8.70;99.90;8.30;99450;;;;605143;237;24049;-82
2023/01/12 12:33:35;;;;;;;6.63;2.83;;;8.80;99.90;8.40;99445;;;;605818;237;24089;-82
2023/01/12 12:36:16;;;;;;;2.47;2.27;;;8.80;99.90;8.30;99431;;;;606054;237;24070;-82
2023/01/12 12:39:00;;;;;;;8.43;3.97;;;8.80;99.90;8.30;99425;;;;600319;237;35026;-83
2023/01/12 12:47:59;;;;;;;7.57;3.40;;;8.60;99.90;8.00;99414;;;;605565;237;24087;-82
2023/01/12 12:50:51;;;;;;;5.67;2.97;;;8.50;99.90;8.00;99408;;;;587740;237;24133;-81
2023/01/12 12:53:22;;;;;;;5.40;3.17;;;8.50;99.90;8.00;99407;;;;600793;236;35011;-82